This is the latest recevied weather packets stored in our database for station/object W7BL. If no packets are shown the sender has not sent any weather packets the latest 1 day(s).
| Time | Temp. | Humidity | Pressure | Rain* | Wind** | Luminosity | Snow |
|---|---|---|---|---|---|---|---|
| 1778045904 | 16.67° C | 57% | - | 0 mm | - | - | - |
| 1778045301 | 16.67° C | 57% | - | 0 mm | - | - | - |
| 1778044697 | 16.67° C | 58% | - | 0 mm | - | - | - |
| 1778044393 | 16.67° C | 58% | - | 0 mm | - | - | - |
| 1778043788 | 16.67° C | 58% | - | 0 mm | - | - | - |
| 1778043181 | 16.11° C | 57% | - | 0 mm | - | - | - |
| 1778042878 | 15.56° C | 58% | - | 0 mm | - | - | - |
| 1778042576 | 16.11° C | 57% | - | 0 mm | - | - | - |
| 1778042273 | 16.11° C | 58% | - | 0 mm | - | - | - |
| 1778041970 | 16.11° C | 56% | - | 0 mm | - | - | - |
| 1778041669 | 16.67° C | 54% | - | 0 mm | - | - | - |
| 1778041065 | 17.78° C | 51% | - | 0 mm | - | - | - |
| 1778040762 | 17.78° C | 53% | - | 0 mm | - | - | - |
| 1778040459 | 17.78° C | 53% | - | 0 mm | - | - | - |
| 1778039853 | 18.33° C | 53% | - | 0 mm | - | - | - |
| 1778039550 | 18.33° C | 52% | - | 0 mm | - | - | - |
| 1778038944 | 18.89° C | 50% | - | 0 mm | - | - | - |
| 1778038641 | 18.89° C | 49% | - | 0 mm | - | - | - |
| 1778038338 | 18.89° C | 48% | - | 0 mm | - | - | - |
| 1778038035 | 18.89° C | 48% | - | 0 mm | - | - | - |
| 1778037732 | 19.44° C | 47% | - | 0 mm | - | - | - |
| 1778037126 | 19.44° C | 46% | - | 0 mm | - | - | - |
| 1778036824 | 19.44° C | 45% | - | 0 mm | - | - | - |
| 1778036218 | 20° C | 43% | - | 0 mm | - | - | - |
| 1778035914 | 20° C | 43% | - | 0 mm | - | - | - |
* Rain latest hour (hover to see other rain measurements)
** Current wind speed in m/s (hover to see current wind gust speed)